createdAt,value
2016-10-20T00:00:32.779Z,0
2016-10-20T00:01:43.508Z,0
2016-10-20T00:02:54.278Z,0
2016-10-20T00:04:05.049Z,0
2016-10-20T00:05:15.750Z,0
2016-10-20T00:06:26.487Z,0
2016-10-20T00:07:37.244Z,0
2016-10-20T00:08:47.968Z,0
2016-10-20T00:09:58.702Z,0
2016-10-20T00:11:09.455Z,0
2016-10-20T00:12:20.185Z,0
2016-10-20T00:13:30.955Z,0
2016-10-20T00:14:41.677Z,0
2016-10-20T00:15:52.394Z,0
2016-10-20T00:17:03.136Z,0
2016-10-20T00:18:13.879Z,0
2016-10-20T00:19:24.603Z,0
2016-10-20T00:20:35.350Z,0
2016-10-20T00:21:46.121Z,0
2016-10-20T00:22:56.854Z,0
2016-10-20T00:24:07.583Z,0
2016-10-20T00:25:18.323Z,0
2016-10-20T00:26:29.053Z,0
2016-10-20T00:27:39.785Z,0
2016-10-20T00:28:50.522Z,0
2016-10-20T00:30:01.256Z,0
2016-10-20T00:31:11.960Z,0
2016-10-20T00:32:22.688Z,0
2016-10-20T00:33:33.437Z,0
2016-10-20T00:34:44.144Z,0
2016-10-20T00:35:54.875Z,0
2016-10-20T00:37:06.130Z,0
2016-10-20T00:38:16.877Z,0
2016-10-20T00:39:27.630Z,0
2016-10-20T00:40:38.343Z,0
2016-10-20T00:41:49.097Z,0
2016-10-20T00:43:00.359Z,0
2016-10-20T00:44:11.110Z,0
2016-10-20T00:45:21.862Z,0
2016-10-20T00:46:32.615Z,0
2016-10-20T00:47:43.359Z,0
2016-10-20T00:48:54.130Z,0
2016-10-20T00:50:04.862Z,0
2016-10-20T00:51:15.575Z,0
2016-10-20T00:52:26.271Z,0
2016-10-20T00:53:37.000Z,0
2016-10-20T00:54:47.674Z,0
2016-10-20T00:55:58.394Z,0
2016-10-20T00:57:09.081Z,0
2016-10-20T00:58:19.768Z,0
2016-10-20T00:59:30.461Z,0
2016-10-20T01:00:41.153Z,0
2016-10-20T01:01:51.854Z,0
2016-10-20T01:03:02.570Z,0
2016-10-20T01:04:13.267Z,0
2016-10-20T01:05:23.992Z,0
2016-10-20T01:06:34.715Z,0
2016-10-20T01:07:45.417Z,0
2016-10-20T01:08:56.100Z,0
2016-10-20T01:10:06.878Z,0
2016-10-20T01:11:17.571Z,0
2016-10-20T01:12:28.261Z,0
2016-10-20T01:13:38.944Z,0
2016-10-20T01:14:49.669Z,0
2016-10-20T01:16:00.368Z,0
2016-10-20T01:17:11.068Z,0
2016-10-20T01:18:21.742Z,0
2016-10-20T01:19:32.477Z,0
2016-10-20T01:20:43.213Z,0
2016-10-20T01:21:53.907Z,0
2016-10-20T01:23:04.631Z,0
2016-10-20T01:24:15.870Z,0
2016-10-20T01:25:26.539Z,0
2016-10-20T01:26:37.259Z,0
2016-10-20T01:27:47.949Z,0
2016-10-20T01:28:58.634Z,0
2016-10-20T01:30:09.347Z,0
2016-10-20T01:31:20.042Z,0
2016-10-20T01:32:30.743Z,0
2016-10-20T01:33:41.417Z,0
2016-10-20T01:34:52.101Z,0
2016-10-20T01:36:02.798Z,0
2016-10-20T01:37:13.499Z,0
2016-10-20T01:38:24.182Z,0
2016-10-20T01:39:34.944Z,0
2016-10-20T01:40:45.619Z,0
2016-10-20T01:41:56.316Z,0
2016-10-20T01:43:07.013Z,0
2016-10-20T01:44:17.725Z,0
2016-10-20T01:45:28.453Z,0
2016-10-20T01:46:39.126Z,0
2016-10-20T01:47:49.855Z,0
2016-10-20T01:49:00.521Z,0
2016-10-20T01:50:11.269Z,0
2016-10-20T01:51:21.988Z,0
2016-10-20T01:52:32.777Z,0
2016-10-20T01:53:43.493Z,0
2016-10-20T01:54:54.203Z,0
2016-10-20T01:56:04.947Z,0
2016-10-20T01:57:15.651Z,0
2016-10-20T01:58:26.346Z,0
2016-10-20T01:59:37.059Z,0
2016-10-20T02:00:47.772Z,0
2016-10-20T02:01:58.442Z,0
2016-10-20T02:03:09.123Z,0
2016-10-20T02:04:19.823Z,0
2016-10-20T02:05:30.494Z,0
2016-10-20T02:06:41.183Z,0
2016-10-20T02:07:51.870Z,0
2016-10-20T02:09:02.574Z,0
2016-10-20T02:10:13.278Z,0
2016-10-20T02:11:23.989Z,0
2016-10-20T02:12:34.699Z,0
2016-10-20T02:13:45.963Z,0
2016-10-20T02:14:56.670Z,0
2016-10-20T02:16:07.345Z,0
2016-10-20T02:17:18.174Z,0
2016-10-20T02:18:28.866Z,0
2016-10-20T02:19:39.578Z,0
2016-10-20T02:20:50.267Z,0
2016-10-20T02:22:00.960Z,0
2016-10-20T02:23:11.656Z,0
2016-10-20T02:24:22.894Z,0
2016-10-20T02:25:33.578Z,0
2016-10-20T02:26:44.759Z,0
2016-10-20T02:27:55.459Z,0
2016-10-20T02:29:06.172Z,0
2016-10-20T02:30:16.869Z,0
2016-10-20T02:31:27.593Z,0
2016-10-20T02:32:38.323Z,0
2016-10-20T02:33:49.019Z,0
2016-10-20T02:34:59.691Z,0
2016-10-20T02:36:10.400Z,0
2016-10-20T02:37:21.083Z,0
2016-10-20T02:38:31.783Z,0
2016-10-20T02:39:42.484Z,0
2016-10-20T02:40:53.195Z,0
2016-10-20T02:42:04.921Z,0
2016-10-20T02:43:16.156Z,0
2016-10-20T02:44:27.357Z,0
2016-10-20T02:45:38.557Z,0
2016-10-20T02:46:49.273Z,0
2016-10-20T02:48:00.000Z,0
2016-10-20T02:49:10.769Z,0
2016-10-20T02:50:21.455Z,0
2016-10-20T02:51:32.130Z,0
2016-10-20T02:52:42.861Z,0
2016-10-20T02:53:53.575Z,0
2016-10-20T02:55:04.289Z,0
2016-10-20T02:56:14.978Z,0
2016-10-20T02:57:25.662Z,0
2016-10-20T02:58:36.322Z,0
2016-10-20T02:59:47.521Z,0
2016-10-20T03:00:58.264Z,0
2016-10-20T03:02:08.945Z,0
2016-10-20T03:03:19.784Z,0
2016-10-20T03:04:30.474Z,0
2016-10-20T03:05:41.147Z,0
2016-10-20T03:06:51.851Z,0
2016-10-20T03:08:02.549Z,0
2016-10-20T03:09:13.237Z,0
2016-10-20T03:10:23.912Z,0
2016-10-20T03:11:34.614Z,0
2016-10-20T03:12:45.321Z,0
2016-10-20T03:13:56.011Z,0
2016-10-20T03:15:07.789Z,0
2016-10-20T03:16:18.481Z,0
2016-10-20T03:17:29.231Z,0
2016-10-20T03:18:39.893Z,0
2016-10-20T03:19:50.587Z,0
2016-10-20T03:21:01.782Z,0
2016-10-20T03:22:12.625Z,0
2016-10-20T03:23:23.333Z,0
2016-10-20T03:24:34.028Z,0
2016-10-20T03:25:44.758Z,0
2016-10-20T03:26:55.482Z,0
2016-10-20T03:28:06.196Z,0
2016-10-20T03:29:16.900Z,0
2016-10-20T03:30:27.634Z,0
2016-10-20T03:31:38.351Z,0
2016-10-20T03:32:49.054Z,0
2016-10-20T03:33:59.788Z,0
2016-10-20T03:35:11.025Z,0
2016-10-20T03:36:21.766Z,0
2016-10-20T03:37:32.505Z,0
2016-10-20T03:38:43.262Z,0
2016-10-20T03:39:53.975Z,0
2016-10-20T03:41:04.708Z,0
2016-10-20T03:42:15.425Z,0
2016-10-20T03:43:26.161Z,0
2016-10-20T03:44:36.881Z,0
2016-10-20T03:45:47.637Z,0
2016-10-20T03:46:58.371Z,0
2016-10-20T03:48:09.104Z,0
2016-10-20T03:49:19.823Z,0
2016-10-20T03:50:30.534Z,0
2016-10-20T03:51:41.291Z,0
2016-10-20T03:52:52.007Z,0
2016-10-20T03:54:02.736Z,0
2016-10-20T03:55:13.480Z,0
2016-10-20T03:56:24.240Z,0
2016-10-20T03:57:34.962Z,0
2016-10-20T03:58:45.708Z,0
2016-10-20T03:59:56.520Z,0
2016-10-20T04:01:08.310Z,0
2016-10-20T04:02:19.038Z,0
2016-10-20T04:03:30.264Z,0
2016-10-20T04:04:40.976Z,0
2016-10-20T04:05:51.721Z,0
2016-10-20T04:07:02.458Z,0
2016-10-20T04:08:13.188Z,0
2016-10-20T04:09:24.453Z,0
2016-10-20T04:10:35.170Z,0
2016-10-20T04:11:45.887Z,0
2016-10-20T04:12:56.609Z,0
2016-10-20T04:14:07.319Z,0
2016-10-20T04:15:18.054Z,0
2016-10-20T04:16:28.758Z,0
2016-10-20T04:17:39.465Z,0
2016-10-20T04:18:50.233Z,0
2016-10-20T04:20:01.533Z,0
2016-10-20T04:21:12.300Z,0
2016-10-20T04:22:23.054Z,0
2016-10-20T04:23:33.777Z,0
2016-10-20T04:24:44.499Z,0
2016-10-20T04:25:55.242Z,0
2016-10-20T04:27:06.468Z,0
2016-10-20T04:28:17.195Z,0
2016-10-20T04:29:27.907Z,0
2016-10-20T04:30:38.616Z,0
2016-10-20T04:31:49.340Z,0
2016-10-20T04:33:00.061Z,0
2016-10-20T04:34:10.756Z,0
2016-10-20T04:35:21.471Z,0
2016-10-20T04:36:32.173Z,0
2016-10-20T04:37:43.415Z,0
2016-10-20T04:38:54.118Z,0
2016-10-20T04:40:04.863Z,0
2016-10-20T04:41:15.608Z,0
2016-10-20T04:42:26.391Z,0
2016-10-20T04:43:37.115Z,0
2016-10-20T04:44:47.818Z,0
2016-10-20T04:45:58.540Z,0
2016-10-20T04:47:09.277Z,0
2016-10-20T04:48:20.004Z,0
2016-10-20T04:49:30.740Z,0
2016-10-20T04:50:41.482Z,0
2016-10-20T04:51:52.204Z,0
2016-10-20T04:53:02.921Z,0
2016-10-20T04:54:13.600Z,0
2016-10-20T04:55:24.330Z,0
2016-10-20T04:56:35.088Z,0
2016-10-20T04:57:45.801Z,0
2016-10-20T04:58:56.553Z,0
2016-10-20T05:00:07.292Z,0
2016-10-20T05:01:18.002Z,0
2016-10-20T05:02:28.746Z,0
2016-10-20T05:03:39.467Z,0
2016-10-20T05:04:50.225Z,0
2016-10-20T05:06:00.893Z,0
2016-10-20T05:07:12.122Z,0
2016-10-20T05:08:22.808Z,0
2016-10-20T05:09:33.504Z,0
2016-10-20T05:10:44.228Z,0
2016-10-20T05:11:54.928Z,0
2016-10-20T05:13:05.661Z,0
2016-10-20T05:14:19.923Z,0
2016-10-20T05:15:30.615Z,0
2016-10-20T05:16:41.302Z,0
2016-10-20T05:17:52.038Z,0
2016-10-20T05:19:02.755Z,0
2016-10-20T05:20:13.472Z,0
2016-10-20T05:21:24.198Z,0
2016-10-20T05:22:34.888Z,0
2016-10-20T05:23:45.592Z,0
2016-10-20T05:24:56.326Z,0
2016-10-20T05:26:07.060Z,0
2016-10-20T05:27:17.780Z,0
2016-10-20T05:28:28.490Z,0
2016-10-20T05:29:39.215Z,0
2016-10-20T05:30:49.907Z,0
2016-10-20T05:32:00.629Z,0
2016-10-20T05:33:11.351Z,0
2016-10-20T05:34:22.111Z,0
2016-10-20T05:35:32.808Z,0
2016-10-20T05:36:43.524Z,0
2016-10-20T05:37:54.247Z,0
2016-10-20T05:39:04.958Z,0
2016-10-20T05:40:15.671Z,0
2016-10-20T05:41:26.410Z,0
2016-10-20T05:42:37.151Z,0
2016-10-20T05:43:47.885Z,0
2016-10-20T05:44:58.587Z,0
2016-10-20T05:46:09.801Z,0
2016-10-20T05:47:20.738Z,0
2016-10-20T05:48:31.439Z,0
2016-10-20T05:49:42.157Z,0
2016-10-20T05:50:53.452Z,0
2016-10-20T05:52:04.183Z,0
2016-10-20T05:53:14.897Z,0
2016-10-20T05:54:25.601Z,0
2016-10-20T05:55:36.360Z,0
2016-10-20T05:56:47.071Z,0
2016-10-20T05:57:57.788Z,0
2016-10-20T05:59:08.482Z,0
2016-10-20T06:00:19.225Z,0
2016-10-20T06:01:29.953Z,0
2016-10-20T06:02:40.661Z,0
2016-10-20T06:03:51.396Z,0
2016-10-20T06:05:02.111Z,0
2016-10-20T06:06:12.824Z,0
2016-10-20T06:07:23.536Z,0
2016-10-20T06:08:34.260Z,0
2016-10-20T06:09:44.973Z,0
2016-10-20T06:10:55.690Z,0
2016-10-20T06:12:06.421Z,0
2016-10-20T06:13:17.118Z,0
2016-10-20T06:14:27.828Z,0
2016-10-20T06:15:38.523Z,0
2016-10-20T06:16:49.227Z,0
2016-10-20T06:17:59.924Z,0
2016-10-20T06:19:10.655Z,0
2016-10-20T06:20:21.657Z,0
2016-10-20T06:21:32.863Z,0
2016-10-20T06:22:43.554Z,0
2016-10-20T06:23:54.327Z,0
2016-10-20T06:25:05.053Z,0
2016-10-20T06:26:15.765Z,0
2016-10-20T06:27:26.993Z,0
2016-10-20T06:28:37.698Z,0
2016-10-20T06:29:48.401Z,0
2016-10-20T06:30:59.075Z,0
2016-10-20T06:32:09.770Z,0
2016-10-20T06:33:20.470Z,0
2016-10-20T06:34:31.195Z,0
2016-10-20T06:35:41.959Z,0
2016-10-20T06:36:53.201Z,0
2016-10-20T06:38:03.902Z,0
2016-10-20T06:39:14.742Z,0
2016-10-20T06:40:25.469Z,0
2016-10-20T06:41:36.162Z,0
2016-10-20T06:42:46.888Z,0
2016-10-20T06:43:57.602Z,0
2016-10-20T06:45:08.329Z,0
2016-10-20T06:46:19.033Z,0
2016-10-20T06:47:29.745Z,0
2016-10-20T06:48:40.448Z,0
2016-10-20T06:49:51.210Z,0
2016-10-20T06:51:01.925Z,0
2016-10-20T06:52:12.660Z,0
2016-10-20T06:53:23.360Z,0
2016-10-20T06:54:34.091Z,0
2016-10-20T06:55:44.792Z,0
2016-10-20T06:56:56.010Z,0
2016-10-20T06:58:06.715Z,0
2016-10-20T06:59:17.464Z,0
2016-10-20T07:00:28.159Z,0
2016-10-20T07:01:38.855Z,0
2016-10-20T07:02:50.110Z,0
2016-10-20T07:04:00.830Z,0
2016-10-20T07:05:11.532Z,0
2016-10-20T07:06:22.251Z,0
2016-10-20T07:07:32.951Z,0
2016-10-20T07:08:43.666Z,0
2016-10-20T07:09:54.442Z,0
2016-10-20T07:11:05.133Z,0
2016-10-20T07:12:15.829Z,0
2016-10-20T07:13:26.534Z,0
2016-10-20T07:14:37.260Z,0
2016-10-20T07:15:47.955Z,0
2016-10-20T07:16:58.683Z,0
2016-10-20T07:18:09.395Z,0
2016-10-20T07:19:20.117Z,0
2016-10-20T07:20:30.835Z,0
2016-10-20T07:21:41.627Z,0
2016-10-20T07:22:52.327Z,0
2016-10-20T07:24:03.032Z,0
2016-10-20T07:25:13.736Z,0
2016-10-20T07:26:24.457Z,0
2016-10-20T07:27:35.196Z,0
2016-10-20T07:28:45.910Z,0
2016-10-20T07:29:56.611Z,0
2016-10-20T07:31:07.325Z,0
2016-10-20T07:32:18.055Z,0
2016-10-20T07:33:29.672Z,0
2016-10-20T07:34:40.463Z,0
2016-10-20T07:35:51.177Z,0
2016-10-20T07:37:01.923Z,0
2016-10-20T07:38:13.194Z,0
2016-10-20T07:39:23.908Z,0
2016-10-20T07:40:34.607Z,0
2016-10-20T07:41:45.322Z,0
2016-10-20T07:42:56.028Z,0
2016-10-20T07:44:06.753Z,0
2016-10-20T07:45:17.467Z,0
2016-10-20T07:46:28.186Z,0
2016-10-20T07:47:38.953Z,0
2016-10-20T07:48:49.688Z,0
2016-10-20T07:50:00.406Z,0
2016-10-20T07:51:11.094Z,0
2016-10-20T07:52:21.816Z,0
2016-10-20T07:53:32.572Z,0
2016-10-20T07:54:43.261Z,0
2016-10-20T07:55:53.964Z,0
2016-10-20T07:57:04.702Z,0
2016-10-20T07:58:15.419Z,0
2016-10-20T07:59:26.156Z,0
2016-10-20T08:00:36.888Z,0
2016-10-20T08:01:47.581Z,0
2016-10-20T08:02:58.279Z,0
2016-10-20T08:04:09.185Z,0
2016-10-20T08:05:19.888Z,0
2016-10-20T08:06:30.630Z,0
2016-10-20T08:07:41.343Z,0
2016-10-20T08:08:52.056Z,0
2016-10-20T08:10:02.826Z,0
2016-10-20T08:11:13.582Z,0
2016-10-20T08:12:24.269Z,0
2016-10-20T08:13:34.995Z,0
2016-10-20T08:14:45.683Z,0
2016-10-20T08:15:56.412Z,0
2016-10-20T08:17:07.666Z,0
2016-10-20T08:18:18.355Z,0
2016-10-20T08:19:29.055Z,0
2016-10-20T08:20:39.819Z,0
2016-10-20T08:21:50.588Z,0
2016-10-20T08:23:01.293Z,0
2016-10-20T08:24:11.977Z,5
2016-10-20T08:25:22.703Z,5
2016-10-20T08:26:33.450Z,5
2016-10-20T08:27:44.168Z,5
2016-10-20T08:28:54.887Z,5
2016-10-20T08:30:05.581Z,5
2016-10-20T08:31:16.288Z,5
2016-10-20T08:32:27.039Z,5
2016-10-20T08:33:37.744Z,5
2016-10-20T08:34:48.447Z,0
2016-10-20T08:35:59.154Z,0
2016-10-20T08:37:09.833Z,0
2016-10-20T08:38:20.540Z,0
2016-10-20T08:39:31.262Z,0
2016-10-20T08:40:41.963Z,5
2016-10-20T08:41:52.715Z,10
2016-10-20T08:43:03.388Z,15
2016-10-20T08:44:14.105Z,30
2016-10-20T08:45:24.815Z,30
2016-10-20T08:46:35.523Z,30
2016-10-20T08:47:46.247Z,25
2016-10-20T08:48:56.986Z,15
2016-10-20T08:50:07.681Z,5
2016-10-20T08:51:18.382Z,5
2016-10-20T08:52:29.609Z,5
2016-10-20T08:53:40.305Z,5
2016-10-20T08:54:51.051Z,5
2016-10-20T08:56:01.737Z,5
2016-10-20T08:57:12.464Z,5
2016-10-20T08:58:23.222Z,5
2016-10-20T08:59:33.947Z,5
2016-10-20T09:00:44.686Z,10
2016-10-20T09:01:55.437Z,5
2016-10-20T09:03:06.167Z,5
2016-10-20T09:04:16.910Z,10
2016-10-20T09:05:27.615Z,10
2016-10-20T09:06:38.329Z,10
2016-10-20T09:07:49.026Z,10
2016-10-20T09:08:59.753Z,10
2016-10-20T09:10:10.945Z,10
2016-10-20T09:11:21.639Z,10
2016-10-20T09:12:32.373Z,10
2016-10-20T09:13:43.091Z,10
2016-10-20T09:14:53.800Z,15
2016-10-20T09:16:04.513Z,15
2016-10-20T09:17:15.251Z,15
2016-10-20T09:18:25.973Z,15
2016-10-20T09:19:36.686Z,20
2016-10-20T09:20:47.393Z,20
2016-10-20T09:21:58.663Z,25
2016-10-20T09:23:09.374Z,25
2016-10-20T09:24:20.075Z,30
2016-10-20T09:25:30.797Z,35
2016-10-20T09:26:41.524Z,35
2016-10-20T09:27:52.243Z,45
2016-10-20T09:29:02.941Z,55
2016-10-20T09:30:13.649Z,65
2016-10-20T09:31:24.877Z,80
2016-10-20T09:32:35.619Z,95
2016-10-20T09:33:46.320Z,105
2016-10-20T09:34:57.073Z,110
2016-10-20T09:36:07.790Z,120
2016-10-20T09:37:18.510Z,130
2016-10-20T09:38:29.204Z,130
2016-10-20T09:39:39.905Z,135
2016-10-20T09:40:50.636Z,135
2016-10-20T09:42:01.413Z,135
2016-10-20T09:43:12.638Z,135
2016-10-20T09:44:23.357Z,135
2016-10-20T09:45:34.063Z,140
2016-10-20T09:46:44.785Z,135
2016-10-20T09:47:55.491Z,135
2016-10-20T09:49:06.181Z,140
2016-10-20T09:50:16.893Z,140
2016-10-20T09:51:27.615Z,145
2016-10-20T09:52:38.429Z,145
2016-10-20T09:53:49.151Z,155
2016-10-20T09:54:59.836Z,160
2016-10-20T09:56:11.037Z,170
2016-10-20T09:57:21.749Z,175
2016-10-20T09:58:32.470Z,185
2016-10-20T09:59:43.155Z,190
2016-10-20T10:00:53.862Z,200
2016-10-20T10:02:04.591Z,210
2016-10-20T10:03:15.290Z,220
2016-10-20T10:04:26.012Z,235
2016-10-20T10:05:36.731Z,250
2016-10-20T10:06:47.427Z,265
2016-10-20T10:07:58.136Z,275
2016-10-20T10:09:08.855Z,285
2016-10-20T10:10:19.594Z,300
2016-10-20T10:11:30.280Z,310
2016-10-20T10:12:40.968Z,320
2016-10-20T10:13:51.682Z,335
2016-10-20T10:15:02.380Z,345
2016-10-20T10:16:13.086Z,355
2016-10-20T10:17:23.805Z,360
2016-10-20T10:18:34.533Z,370
2016-10-20T10:19:45.313Z,375
2016-10-20T10:20:56.015Z,390
2016-10-20T10:22:07.278Z,390
2016-10-20T10:23:17.971Z,390
2016-10-20T10:24:28.692Z,395
2016-10-20T10:25:39.396Z,410
2016-10-20T10:26:50.091Z,430
2016-10-20T10:28:00.810Z,425
2016-10-20T10:29:11.511Z,435
2016-10-20T10:30:22.211Z,455
2016-10-20T10:31:32.923Z,470
2016-10-20T10:32:43.618Z,545
2016-10-20T10:33:54.333Z,610
2016-10-20T10:35:05.047Z,675
2016-10-20T10:36:15.767Z,800
2016-10-20T10:37:26.489Z,855
2016-10-20T10:38:37.200Z,800
2016-10-20T10:39:47.906Z,845
2016-10-20T10:40:58.612Z,860
2016-10-20T10:42:09.330Z,770
2016-10-20T10:43:20.097Z,760
2016-10-20T10:44:30.823Z,735
2016-10-20T10:45:41.513Z,725
2016-10-20T10:46:52.220Z,740
2016-10-20T10:48:02.947Z,795
2016-10-20T10:49:13.681Z,825
2016-10-20T10:50:24.378Z,1250
2016-10-20T10:51:35.083Z,1650
2016-10-20T10:52:45.903Z,1695
2016-10-20T10:53:57.132Z,1705
2016-10-20T10:55:07.847Z,1730
2016-10-20T10:56:18.571Z,1745
2016-10-20T10:57:29.283Z,1875
2016-10-20T10:58:39.993Z,2105
2016-10-20T10:59:50.722Z,2160
2016-10-20T11:01:01.481Z,2075
2016-10-20T11:02:12.290Z,2135
2016-10-20T11:03:23.135Z,2195
2016-10-20T11:04:33.833Z,2055
2016-10-20T11:05:45.035Z,1870
2016-10-20T11:06:55.822Z,2215
2016-10-20T11:08:06.557Z,2210
2016-10-20T11:09:17.318Z,2385
2016-10-20T11:10:28.786Z,2375
2016-10-20T11:11:39.524Z,2425
2016-10-20T11:12:50.242Z,2315
2016-10-20T11:14:00.975Z,2235
2016-10-20T11:15:11.703Z,2135
2016-10-20T11:16:22.412Z,2220
2016-10-20T11:17:33.147Z,2435
2016-10-20T11:18:43.921Z,2545
2016-10-20T11:19:54.626Z,2515
2016-10-20T11:21:05.335Z,2560
2016-10-20T11:22:16.091Z,2470
2016-10-20T11:23:26.812Z,2385
2016-10-20T11:24:37.649Z,2450
2016-10-20T11:25:48.385Z,2465
2016-10-20T11:26:59.102Z,2535
2016-10-20T11:28:09.822Z,2540
2016-10-20T11:29:20.535Z,2470
2016-10-20T11:30:31.259Z,2485
2016-10-20T11:31:41.987Z,2495
2016-10-20T11:32:52.736Z,2565
2016-10-20T11:34:03.461Z,2515
2016-10-20T11:35:14.181Z,2755
2016-10-20T11:36:24.917Z,2805
2016-10-20T11:37:35.660Z,2820
2016-10-20T11:38:46.393Z,2770
2016-10-20T11:39:57.161Z,2855
2016-10-20T11:41:07.889Z,2995
2016-10-20T11:42:18.629Z,3040
2016-10-20T11:43:29.355Z,2910
2016-10-20T11:44:40.082Z,2825
2016-10-20T11:45:50.786Z,2805
2016-10-20T11:47:01.493Z,2730
2016-10-20T11:48:12.211Z,2790
2016-10-20T11:49:22.955Z,2610
2016-10-20T11:50:33.716Z,2785
2016-10-20T11:51:44.464Z,2800
2016-10-20T11:52:55.389Z,2885
2016-10-20T11:54:06.092Z,2845
2016-10-20T11:55:16.795Z,2850
2016-10-20T11:56:27.526Z,2795
2016-10-20T11:57:38.253Z,2895
2016-10-20T11:58:48.999Z,2885
2016-10-20T11:59:59.911Z,2815
2016-10-20T12:01:10.690Z,2865
2016-10-20T12:02:21.429Z,2925
2016-10-20T12:03:32.162Z,2880
2016-10-20T12:04:42.906Z,2770
2016-10-20T12:05:54.159Z,2800
2016-10-20T12:07:04.907Z,2995
2016-10-20T12:08:15.613Z,3010
2016-10-20T12:09:26.364Z,2990
2016-10-20T12:10:37.068Z,2875
2016-10-20T12:11:48.292Z,3085
2016-10-20T12:12:59.019Z,2945
2016-10-20T12:14:09.735Z,2940
2016-10-20T12:15:20.483Z,2940
2016-10-20T12:16:31.594Z,3015
2016-10-20T12:17:42.332Z,3150
2016-10-20T12:18:53.577Z,3085
2016-10-20T12:20:04.328Z,3095
2016-10-20T12:21:15.062Z,3070
2016-10-20T12:22:25.767Z,3105
2016-10-20T12:23:36.521Z,3135
2016-10-20T12:24:47.239Z,3265
2016-10-20T12:25:57.961Z,3185
2016-10-20T12:27:09.244Z,3175
2016-10-20T12:28:19.979Z,3275
2016-10-20T12:29:30.738Z,3220
2016-10-20T12:30:41.495Z,3305
2016-10-20T12:31:52.736Z,3160
2016-10-20T12:33:03.495Z,2945
2016-10-20T12:34:14.197Z,2810
2016-10-20T12:35:24.963Z,2925
2016-10-20T12:36:35.704Z,3380
2016-10-20T12:37:46.415Z,3325
2016-10-20T12:38:57.127Z,3410
2016-10-20T12:40:08.353Z,3360
2016-10-20T12:41:19.072Z,3395
2016-10-20T12:42:30.297Z,3250
2016-10-20T12:43:40.995Z,3300
2016-10-20T12:44:51.701Z,3400
2016-10-20T12:46:02.426Z,3485
2016-10-20T12:47:13.673Z,3525
2016-10-20T12:48:24.401Z,3225
2016-10-20T12:49:35.204Z,3490
2016-10-20T12:50:45.958Z,3470
2016-10-20T12:51:56.700Z,3180
2016-10-20T12:53:07.436Z,3185
2016-10-20T12:54:18.171Z,3500
2016-10-20T12:55:29.398Z,3445
2016-10-20T12:56:40.123Z,3515
2016-10-20T12:57:50.826Z,3535
2016-10-20T12:59:01.549Z,3385
2016-10-20T13:00:12.860Z,3550
2016-10-20T13:01:23.581Z,3410
2016-10-20T13:02:34.296Z,3410
2016-10-20T13:03:45.021Z,3435
2016-10-20T13:04:56.528Z,3640
2016-10-20T13:06:07.371Z,3450
2016-10-20T13:07:18.579Z,3695
2016-10-20T13:08:29.875Z,3690
2016-10-20T13:09:40.571Z,3620
2016-10-20T13:10:51.284Z,3360
2016-10-20T13:12:02.010Z,3515
2016-10-20T13:13:12.721Z,3470
2016-10-20T13:14:23.437Z,3530
2016-10-20T13:15:34.689Z,3455
2016-10-20T13:16:45.392Z,3700
2016-10-20T13:17:56.145Z,3635
2016-10-20T13:19:06.871Z,3535
2016-10-20T13:20:17.608Z,3470
2016-10-20T13:21:28.365Z,3620
2016-10-20T13:22:39.095Z,3630
2016-10-20T13:23:49.860Z,3685
2016-10-20T13:25:00.657Z,3685
2016-10-20T13:26:11.400Z,3650
2016-10-20T13:27:22.127Z,3500
2016-10-20T13:28:32.878Z,3835
2016-10-20T13:29:43.601Z,3890
2016-10-20T13:30:54.337Z,3960
2016-10-20T13:32:05.051Z,3810
2016-10-20T13:33:16.297Z,3870
2016-10-20T13:34:26.998Z,3795
2016-10-20T13:35:37.728Z,3875
2016-10-20T13:36:48.504Z,3915
2016-10-20T13:37:59.271Z,3890
2016-10-20T13:39:10.012Z,3890
2016-10-20T13:40:20.761Z,3760
2016-10-20T13:41:31.821Z,3960
2016-10-20T13:42:42.547Z,3830
2016-10-20T13:43:53.309Z,3855
2016-10-20T13:45:04.063Z,3895
2016-10-20T13:46:14.810Z,3870
2016-10-20T13:47:26.038Z,3860
2016-10-20T13:48:37.304Z,3910
2016-10-20T13:49:48.585Z,3860
2016-10-20T13:50:59.307Z,3845
2016-10-20T13:52:10.040Z,3625
2016-10-20T13:53:20.737Z,3865
2016-10-20T13:54:31.470Z,3945
2016-10-20T13:55:42.189Z,3965
2016-10-20T13:56:52.911Z,4015
2016-10-20T13:58:03.651Z,3875
2016-10-20T13:59:14.896Z,3985
2016-10-20T14:00:25.611Z,3920
2016-10-20T14:01:36.329Z,4040
2016-10-20T14:02:47.036Z,4035
2016-10-20T14:03:57.978Z,4055
2016-10-20T14:05:09.231Z,3995
2016-10-20T14:06:19.990Z,4020
2016-10-20T14:07:31.434Z,4075
2016-10-20T14:08:42.164Z,4025
2016-10-20T14:09:53.596Z,3925
2016-10-20T14:11:04.307Z,4085
2016-10-20T14:12:15.041Z,4100
2016-10-20T14:13:26.315Z,4140
2016-10-20T14:14:37.118Z,4050
2016-10-20T14:15:47.902Z,3855
2016-10-20T14:16:58.668Z,3965
2016-10-20T14:18:09.568Z,4010
2016-10-20T14:19:20.978Z,3985
2016-10-20T14:20:31.728Z,3960
2016-10-20T14:21:43.673Z,4035
2016-10-20T14:22:54.648Z,4370
2016-10-20T14:24:05.361Z,4000
2016-10-20T14:25:16.076Z,4150
2016-10-20T14:26:27.047Z,4170
2016-10-20T14:27:37.768Z,4230
2016-10-20T14:28:48.493Z,3635
2016-10-20T14:29:59.234Z,3435
2016-10-20T14:31:10.479Z,4075
2016-10-20T14:32:21.233Z,3800
2016-10-20T14:33:31.974Z,4280
2016-10-20T14:34:42.698Z,4225
2016-10-20T14:35:53.426Z,3120
2016-10-20T14:37:04.176Z,4055
2016-10-20T14:38:15.619Z,4185
2016-10-20T14:39:26.417Z,4040
2016-10-20T14:40:37.142Z,4150
2016-10-20T14:41:47.858Z,4100
2016-10-20T14:42:58.594Z,4000
2016-10-20T14:44:09.363Z,4015
2016-10-20T14:45:20.107Z,4320
2016-10-20T14:46:31.045Z,4060
2016-10-20T14:47:41.752Z,4040
2016-10-20T14:48:52.492Z,3930
2016-10-20T14:50:03.227Z,4000
2016-10-20T14:51:13.984Z,4060
2016-10-20T14:52:24.715Z,4165
2016-10-20T14:53:35.574Z,4075
2016-10-20T14:54:46.301Z,3995
2016-10-20T14:55:57.022Z,3870
2016-10-20T14:57:07.736Z,4015
2016-10-20T14:58:18.476Z,4105
2016-10-20T14:59:29.208Z,4020
2016-10-20T15:00:39.968Z,3980
2016-10-20T15:01:50.701Z,4045
2016-10-20T15:03:01.435Z,4120
2016-10-20T15:04:12.165Z,4115
2016-10-20T15:05:22.891Z,4005
2016-10-20T15:06:34.662Z,3945
2016-10-20T15:07:45.412Z,4075
2016-10-20T15:08:56.164Z,4100
2016-10-20T15:10:06.967Z,4145
2016-10-20T15:11:17.712Z,4090
2016-10-20T15:12:28.456Z,3885
2016-10-20T15:13:39.717Z,4005
2016-10-20T15:14:50.457Z,4090
2016-10-20T15:16:01.700Z,4115
2016-10-20T15:17:12.426Z,4175
2016-10-20T15:18:23.155Z,4140
2016-10-20T15:19:33.898Z,4015
2016-10-20T15:20:44.634Z,3930
2016-10-20T15:21:55.373Z,4120
2016-10-20T15:23:06.146Z,4020
2016-10-20T15:24:16.880Z,3840
2016-10-20T15:25:27.615Z,3760
2016-10-20T15:26:38.346Z,3730
2016-10-20T15:27:49.073Z,3650
2016-10-20T15:28:59.794Z,3785
2016-10-20T15:30:10.505Z,3945
2016-10-20T15:31:21.230Z,3970
2016-10-20T15:32:31.967Z,3885
2016-10-20T15:33:42.684Z,3880
2016-10-20T15:34:53.406Z,3790
2016-10-20T15:36:04.130Z,3805
2016-10-20T15:37:14.879Z,3820
2016-10-20T15:38:25.638Z,3800
2016-10-20T15:39:36.382Z,3710
2016-10-20T15:40:47.128Z,3645
2016-10-20T15:41:57.878Z,3725
2016-10-20T15:43:08.601Z,3840
2016-10-20T15:44:19.346Z,3730
2016-10-20T15:45:30.083Z,3770
2016-10-20T15:46:40.822Z,3800
2016-10-20T15:47:51.582Z,3770
2016-10-20T15:49:02.309Z,3700
2016-10-20T15:50:13.562Z,3770
2016-10-20T15:51:25.536Z,3690
2016-10-20T15:52:36.802Z,3670
2016-10-20T15:53:48.046Z,3265
2016-10-20T15:54:59.277Z,3275
2016-10-20T15:56:10.720Z,3785
2016-10-20T15:57:21.459Z,3800
2016-10-20T15:58:32.246Z,3670
2016-10-20T15:59:43.001Z,2205
2016-10-20T16:00:53.717Z,3340
2016-10-20T16:02:04.466Z,3595
2016-10-20T16:03:15.589Z,3660
2016-10-20T16:04:26.330Z,3610
2016-10-20T16:05:37.067Z,3540
2016-10-20T16:06:47.786Z,3640
2016-10-20T16:07:58.503Z,3765
2016-10-20T16:09:09.233Z,3660
2016-10-20T16:10:19.974Z,3695
2016-10-20T16:11:30.699Z,3585
2016-10-20T16:12:41.441Z,3685
2016-10-20T16:13:52.168Z,3540
2016-10-20T16:15:02.975Z,3740
2016-10-20T16:16:13.779Z,3665
2016-10-20T16:17:24.502Z,3720
2016-10-20T16:18:35.375Z,3545
2016-10-20T16:19:46.154Z,3360
2016-10-20T16:20:56.892Z,3595
2016-10-20T16:22:07.607Z,3520
2016-10-20T16:23:18.322Z,3620
2016-10-20T16:24:29.035Z,3540
2016-10-20T16:25:39.989Z,3405
2016-10-20T16:26:50.879Z,3550
2016-10-20T16:28:01.619Z,3625
2016-10-20T16:29:12.389Z,3485
2016-10-20T16:30:23.253Z,3455
2016-10-20T16:31:33.973Z,3535
2016-10-20T16:32:44.693Z,3480
2016-10-20T16:33:55.968Z,3160
2016-10-20T16:35:06.801Z,3395
2016-10-20T16:36:17.542Z,3515
2016-10-20T16:37:28.280Z,3470
2016-10-20T16:38:39.048Z,3620
2016-10-20T16:39:49.783Z,3500
2016-10-20T16:41:00.534Z,3535